Archival Weather

Snohomish County (Paine Fld)

Everett, Washington (KPAE)

Report from: Tuesday, November 7, 2023 10:28 AM PST
Current time: Sunday, June 16, 2024 11:39 PM PDT

Current weather – Weather history – Daily summaries
Weather forecast

Temperature10.0°C (50.0°F)
Wind chill8.2°C (46.7°F)
Dew point3.9°C (39.0°F)
Winds 7 kts (3.6 m/s, 8.1 mph) North-Northwest (340°)
Visibility10 mi. (16.1 km)
Clouds Ceiling: Overcast 3,100 ft. (945 m)
Altimeter30.05 in.Hg (1018 mB)
Relative humidity66 %
Density altitude-626 ft. (-191 m)
Remarks Special weather observation
Automated weather observing station with precipitation discriminator
Flight conditions Visual Meteorological Conditions
Raw dataSPUS70 KWBC 071832 SPECI KPAE 071828Z 34007KT 10SM OVC031 10/04 A3005 RMK AO2 T01000039
An error has occurred. This application may no longer respond until reloaded. Reload 🗙